createdAt,value
2022-11-15T00:36:25.438Z,25.45
2022-11-15T00:39:02.352Z,27.90
2022-11-15T00:44:07.851Z,29.17
2022-11-15T00:46:38.307Z,30.13
2022-11-15T00:49:13.050Z,28.25
2022-11-15T00:51:46.563Z,27.40
2022-11-15T00:54:28.171Z,28.33
2022-11-15T00:56:57.881Z,28.35
2022-11-15T00:59:36.516Z,28.95
2022-11-15T01:02:09.035Z,29.52
2022-11-15T01:04:38.747Z,31.35
2022-11-15T01:07:15.668Z,31.77
2022-11-15T01:09:50.927Z,32.97
2022-11-15T01:12:27.382Z,31.63
2022-11-15T01:14:56.035Z,30.48
2022-11-15T01:17:26.878Z,30.13
2022-11-15T01:19:57.847Z,32.00
2022-11-15T01:22:29.637Z,31.20
2022-11-15T01:24:59.907Z,30.48
2022-11-15T01:27:30.170Z,31.00
2022-11-15T01:30:01.648Z,31.58
2022-11-15T01:32:29.785Z,30.58
2022-11-15T01:34:57.213Z,33.33
2022-11-15T01:37:28.313Z,34.50
2022-11-15T01:39:59.715Z,33.90
2022-11-15T01:42:27.663Z,35.90
2022-11-15T01:44:56.611Z,36.22
2022-11-15T01:47:36.127Z,39.60
2022-11-15T01:50:16.348Z,39.47
2022-11-15T01:52:45.441Z,38.78
2022-11-15T01:55:29.490Z,39.13
2022-11-15T01:58:03.565Z,34.10
2022-11-15T02:00:34.465Z,39.67
2022-11-15T02:03:02.868Z,36.22
2022-11-15T02:05:32.723Z,33.95
2022-11-15T02:08:08.042Z,37.05
2022-11-15T02:10:38.265Z,38.28
2022-11-15T02:13:07.756Z,36.55
2022-11-15T02:16:07.379Z,32.33
2022-11-15T02:18:48.628Z,33.15
2022-11-15T02:21:50.916Z,33.75
2022-11-15T02:24:47.760Z,33.95
2022-11-15T02:27:41.343Z,36.10
2022-11-15T02:30:57.982Z,35.15
2022-11-15T02:37:44.295Z,33.92
2022-11-15T02:43:58.854Z,32.42
2022-11-15T02:46:58.543Z,32.80
2022-11-15T02:49:32.846Z,39.65
2022-11-15T02:52:08.095Z,36.13
2022-11-15T02:57:38.857Z,34.30
2022-11-15T03:10:41.262Z,30.00
2022-11-15T03:13:36.493Z,31.38
2022-11-15T03:16:10.284Z,32.45
2022-11-15T03:18:51.995Z,30.73
2022-11-15T03:21:33.547Z,29.70
2022-11-15T04:21:26.820Z,27.33
2022-11-15T04:24:08.621Z,27.02
2022-11-15T04:26:38.367Z,29.63
2022-11-15T04:29:25.252Z,28.02
2022-11-15T04:34:23.850Z,27.73
2022-11-15T04:37:11.060Z,28.25
2022-11-15T04:39:48.762Z,27.13
2022-11-15T04:42:16.290Z,28.30
2022-11-15T04:44:46.367Z,27.52
2022-11-15T04:47:17.305Z,26.02
2022-11-15T04:49:45.581Z,27.58
2022-11-15T04:52:13.073Z,27.08
2022-11-15T04:54:40.437Z,26.35
2022-11-15T04:57:10.604Z,27.40
2022-11-15T04:59:40.669Z,26.55
2022-11-15T05:02:10.241Z,29.33
2022-11-15T05:04:37.649Z,27.60
2022-11-15T05:07:08.155Z,26.23
2022-11-15T05:09:35.681Z,27.45
2022-11-15T05:12:02.979Z,26.92
2022-11-15T05:14:30.377Z,26.50
2022-11-15T05:16:57.642Z,26.20
2022-11-15T05:19:35.344Z,26.70
2022-11-15T05:24:52.379Z,25.88
2022-11-15T05:27:28.170Z,24.17
2022-11-15T05:29:56.477Z,25.13
2022-11-15T05:32:24.187Z,25.42
2022-11-15T05:34:51.618Z,25.25
2022-11-15T05:37:19.603Z,24.75
2022-11-15T05:39:48.074Z,26.10
2022-11-15T05:42:17.872Z,24.67
2022-11-15T05:44:51.912Z,25.23
2022-11-15T05:47:26.005Z,24.10
2022-11-15T05:49:54.471Z,23.65
2022-11-15T05:52:30.196Z,25.73
2022-11-15T05:55:00.352Z,23.80
2022-11-15T05:57:27.754Z,25.38
2022-11-15T05:59:56.210Z,25.92
2022-11-15T06:02:23.557Z,26.58
2022-11-15T06:04:51.109Z,27.45
2022-11-15T06:07:18.650Z,29.17
2022-11-15T06:09:45.945Z,25.88
2022-11-15T06:14:51.255Z,25.40
2022-11-15T06:17:20.901Z,25.92
2022-11-15T06:20:02.311Z,29.27
2022-11-15T06:25:05.661Z,26.52
2022-11-15T06:27:33.546Z,27.50
2022-11-15T06:30:00.806Z,25.83
2022-11-15T06:32:34.951Z,31.15
2022-11-15T06:37:49.877Z,30.88
2022-11-15T06:40:18.293Z,25.33
2022-11-15T06:42:51.165Z,28.63
2022-11-15T06:45:18.969Z,27.83
2022-11-15T06:47:48.039Z,24.77
2022-11-15T06:50:16.655Z,23.65
2022-11-15T06:52:44.415Z,30.00
2022-11-15T06:55:12.715Z,33.88
2022-11-15T06:57:53.613Z,29.27
2022-11-15T07:00:24.339Z,26.40
2022-11-15T07:03:04.335Z,29.50
2022-11-15T07:05:44.768Z,24.90
2022-11-15T07:08:15.154Z,23.40
2022-11-15T07:10:44.278Z,22.70
2022-11-15T07:13:13.485Z,23.38
2022-11-15T07:18:32.302Z,21.92
2022-11-15T07:21:04.443Z,22.98
2022-11-15T07:23:32.402Z,22.45
2022-11-15T07:26:00.921Z,26.55
2022-11-15T07:28:30.602Z,24.85
2022-11-15T07:30:58.066Z,24.48
2022-11-15T07:33:25.383Z,24.95
2022-11-15T07:35:52.587Z,24.33
2022-11-15T07:38:22.411Z,23.52
2022-11-15T07:41:02.306Z,25.08
2022-11-15T07:43:31.010Z,23.38
2022-11-15T07:45:59.590Z,24.38
2022-11-15T07:48:32.138Z,22.88
2022-11-15T07:51:14.694Z,25.80
2022-11-15T07:53:45.624Z,23.48
2022-11-15T07:56:13.299Z,24.70
2022-11-15T07:58:40.592Z,24.58
2022-11-15T08:01:10.650Z,24.20
2022-11-15T08:03:38.747Z,24.35
2022-11-15T08:06:06.327Z,26.30
2022-11-15T08:08:33.524Z,24.38
2022-11-15T08:11:01.342Z,24.73
2022-11-15T08:13:28.762Z,27.13
2022-11-15T08:16:06.433Z,25.67
2022-11-15T08:18:33.897Z,27.52
2022-11-15T08:21:02.948Z,26.65
2022-11-15T08:23:30.835Z,27.52
2022-11-15T08:26:05.694Z,28.40
2022-11-15T08:28:33.706Z,29.15
2022-11-15T08:31:00.839Z,27.27
2022-11-15T08:33:29.091Z,27.63
2022-11-15T08:36:01.142Z,25.83
2022-11-15T08:38:32.444Z,30.35
2022-11-15T08:41:07.210Z,28.20
2022-11-15T08:43:35.122Z,28.83
2022-11-15T08:46:02.463Z,29.98
2022-11-15T08:48:30.596Z,28.10
2022-11-15T08:51:01.451Z,27.15
2022-11-15T08:53:28.640Z,27.75
2022-11-15T08:55:55.817Z,27.55
2022-11-15T08:58:23.100Z,26.60
2022-11-15T09:00:50.341Z,24.67
2022-11-15T09:03:17.642Z,26.10
2022-11-15T09:05:44.792Z,26.15
2022-11-15T09:08:40.878Z,26.42
2022-11-15T09:11:05.927Z,27.15
2022-11-15T09:13:33.575Z,27.17
2022-11-15T09:16:02.210Z,28.52
2022-11-15T09:18:29.739Z,27.35
2022-11-15T09:20:59.621Z,27.30
2022-11-15T09:23:27.970Z,29.20
2022-11-15T09:26:04.296Z,28.80
2022-11-15T09:28:32.678Z,27.20
2022-11-15T09:31:02.289Z,26.70
2022-11-15T09:33:30.600Z,27.17
2022-11-15T09:36:04.211Z,26.98
2022-11-15T09:38:32.422Z,28.80
2022-11-15T09:41:50.151Z,27.30
2022-11-15T09:44:25.862Z,24.73
2022-11-15T09:46:56.837Z,26.08
2022-11-15T09:49:24.652Z,27.15
2022-11-15T09:51:55.280Z,27.70
2022-11-15T09:57:52.397Z,26.27
2022-11-15T10:00:46.401Z,28.67
2022-11-15T10:03:26.559Z,29.58
2022-11-15T10:05:58.972Z,28.58
2022-11-15T10:08:54.873Z,29.67
2022-11-15T10:11:37.756Z,28.45
2022-11-15T10:14:32.907Z,29.00
2022-11-15T10:17:03.146Z,30.25
2022-11-15T10:19:42.395Z,28.83
2022-11-15T10:22:30.774Z,29.10
2022-11-15T10:25:10.010Z,28.75
2022-11-15T10:27:37.647Z,29.92
2022-11-15T10:30:12.952Z,28.25
2022-11-15T10:32:43.304Z,29.63
2022-11-15T10:35:30.358Z,28.88
2022-11-15T10:38:12.322Z,28.27
2022-11-15T10:40:42.270Z,28.83
2022-11-15T10:43:17.202Z,28.95
2022-11-15T10:45:45.637Z,29.60
2022-11-15T10:48:15.809Z,29.30
2022-11-15T10:50:46.630Z,30.00
2022-11-15T10:53:38.358Z,29.90
2022-11-15T10:56:12.585Z,31.35
2022-11-15T10:58:44.365Z,35.70
2022-11-15T11:01:23.245Z,33.92
2022-11-15T11:04:06.457Z,33.28
2022-11-15T11:07:00.801Z,31.00
2022-11-15T11:09:43.324Z,30.08
2022-11-15T11:12:15.657Z,30.58
2022-11-15T11:14:42.804Z,29.60
2022-11-15T11:17:55.008Z,28.40
2022-11-15T11:20:46.502Z,26.95
2022-11-15T11:23:47.283Z,27.02
2022-11-15T11:26:42.206Z,28.52
2022-11-15T11:32:08.576Z,26.63
2022-11-15T11:34:59.029Z,27.00
2022-11-15T11:37:37.013Z,25.58
2022-11-15T11:40:41.040Z,26.83
2022-11-15T11:43:57.073Z,28.65
2022-11-15T11:46:50.523Z,27.50
2022-11-15T11:49:46.983Z,27.00
2022-11-15T11:52:32.131Z,28.15
2022-11-15T11:55:26.663Z,34.03
2022-11-15T11:58:16.590Z,38.00
2022-11-15T12:00:53.012Z,31.15
2022-11-15T12:03:47.261Z,30.50
2022-11-15T12:06:38.674Z,29.80
2022-11-15T12:09:27.783Z,31.15
2022-11-15T12:12:12.437Z,29.98
2022-11-15T12:17:27.787Z,33.58
2022-11-15T12:20:00.087Z,32.58
2022-11-15T12:22:44.315Z,35.92
2022-11-15T12:25:31.996Z,34.22
2022-11-15T12:28:09.323Z,31.80
2022-11-15T12:31:05.290Z,32.45
2022-11-15T12:33:45.542Z,28.80
2022-11-15T12:36:22.170Z,30.80
2022-11-15T12:39:10.218Z,32.50
2022-11-15T12:41:43.627Z,33.05
2022-11-15T12:44:40.585Z,31.10
2022-11-15T12:47:10.900Z,28.55
2022-11-15T12:49:39.965Z,26.75
2022-11-15T12:52:11.505Z,25.35
2022-11-15T12:54:42.615Z,27.02
2022-11-15T12:57:28.021Z,27.63
2022-11-15T13:00:21.520Z,29.88
2022-11-15T13:03:36.170Z,27.80
2022-11-15T13:09:01.220Z,26.88
2022-11-15T14:19:36.446Z,20.10
2022-11-15T14:39:38.800Z,22.15
2022-11-15T15:01:26.080Z,21.67
2022-11-15T15:03:57.079Z,22.77
2022-11-15T15:06:25.228Z,21.90
2022-11-15T15:08:52.743Z,22.48
2022-11-15T15:12:05.892Z,22.25
2022-11-15T15:35:24.496Z,25.70
2022-11-15T15:37:52.307Z,29.67
2022-11-15T15:40:25.810Z,26.45
2022-11-15T15:42:53.328Z,29.10
2022-11-15T15:45:21.056Z,25.55
2022-11-15T15:47:50.348Z,27.52
2022-11-15T15:50:36.822Z,28.15
2022-11-15T15:53:05.867Z,25.83
2022-11-15T15:55:33.724Z,28.45
2022-11-15T15:58:00.954Z,30.02
2022-11-15T16:00:28.238Z,29.83
2022-11-15T16:02:55.584Z,29.05
2022-11-15T16:05:24.042Z,29.05
2022-11-15T16:07:52.016Z,28.88
2022-11-15T16:10:29.821Z,28.42
2022-11-15T16:12:58.695Z,29.08
2022-11-15T16:15:31.341Z,28.33
2022-11-15T16:18:01.054Z,31.58
2022-11-15T16:20:36.743Z,32.88
2022-11-15T16:23:16.124Z,34.42
2022-11-15T16:25:58.296Z,39.53
2022-11-15T16:28:38.534Z,36.10
2022-11-15T16:31:22.719Z,35.05
2022-11-15T16:33:53.936Z,31.15
2022-11-15T16:36:30.815Z,30.83
2022-11-15T16:42:02.087Z,30.25
2022-11-15T16:44:40.298Z,30.30
2022-11-15T19:22:14.473Z,23.30
2022-11-15T19:27:17.920Z,21.58
2022-11-15T19:30:19.338Z,19.55
2022-11-15T19:32:59.911Z,20.38
2022-11-15T19:35:27.682Z,20.42
2022-11-15T19:37:55.310Z,20.42
2022-11-15T19:40:24.237Z,21.40
2022-11-15T19:42:53.660Z,21.95
2022-11-15T19:45:26.550Z,22.52
2022-11-15T19:47:53.960Z,21.88
2022-11-15T19:50:21.232Z,22.25
2022-11-15T19:52:48.421Z,22.92
2022-11-15T20:01:24.914Z,25.35
2022-11-15T20:03:55.402Z,24.92
2022-11-15T20:12:15.489Z,25.38
2022-11-15T20:14:47.319Z,22.38
2022-11-15T20:17:15.398Z,23.50
2022-11-15T20:19:43.582Z,24.33
2022-11-15T21:02:09.220Z,26.02
2022-11-15T21:33:36.892Z,23.88
2022-11-15T21:36:10.168Z,23.75
2022-11-15T21:38:38.370Z,26.10
2022-11-15T21:41:06.552Z,26.60
2022-11-15T21:43:35.025Z,25.92
2022-11-15T21:46:08.242Z,27.10
2022-11-15T21:49:32.113Z,25.83
2022-11-15T21:52:00.435Z,26.58
2022-11-15T21:54:27.872Z,26.67
2022-11-15T22:00:00.772Z,27.90
2022-11-15T22:02:27.904Z,27.85
2022-11-15T22:04:55.008Z,27.35
2022-11-15T22:07:22.278Z,27.00
2022-11-15T22:09:49.516Z,25.38
2022-11-15T22:12:16.703Z,24.42
2022-11-15T22:14:43.885Z,23.88
2022-11-15T22:17:11.477Z,24.02
2022-11-15T22:19:51.930Z,25.02
2022-11-15T22:22:19.889Z,22.48
2022-11-15T22:24:47.088Z,23.52
2022-11-15T22:27:14.273Z,25.17
2022-11-15T22:29:41.787Z,24.70
2022-11-15T22:32:08.934Z,23.48
2022-11-15T22:34:36.195Z,24.55
2022-11-15T22:37:20.057Z,24.67
2022-11-15T22:39:48.655Z,23.65
2022-11-15T22:42:19.433Z,24.95
2022-11-15T22:44:50.665Z,24.77
2022-11-15T22:47:19.247Z,25.83
2022-11-15T22:49:46.529Z,24.40
2022-11-15T22:52:14.344Z,23.63
2022-11-15T22:54:41.633Z,24.30
2022-11-15T22:57:09.008Z,23.67
2022-11-15T22:59:37.740Z,23.52
2022-11-15T23:02:05.456Z,24.40
2022-11-15T23:04:32.749Z,21.45
2022-11-15T23:06:59.994Z,22.50
2022-11-15T23:09:27.371Z,23.70
2022-11-15T23:12:13.204Z,24.20
2022-11-15T23:14:40.385Z,25.33
2022-11-15T23:17:07.973Z,24.38
2022-11-15T23:19:35.353Z,26.27
2022-11-15T23:22:20.990Z,25.35
2022-11-15T23:24:48.568Z,25.05
2022-11-15T23:27:20.044Z,23.15
2022-11-15T23:30:06.961Z,25.75
2022-11-15T23:32:52.617Z,24.77
2022-11-15T23:35:29.998Z,24.55
2022-11-15T23:37:57.875Z,26.35
2022-11-15T23:40:25.315Z,28.92
2022-11-15T23:42:52.723Z,25.95
2022-11-15T23:45:20.400Z,27.42
2022-11-15T23:47:47.601Z,25.80
2022-11-15T23:50:14.944Z,26.55
2022-11-15T23:52:42.187Z,26.42
2022-11-15T23:55:10.099Z,24.85
2022-11-15T23:57:37.627Z,25.77
